Pagina principale
METAR-TAF:

METAR-TAF

Aeroporti :

Aeroporto di Roma-Fiumicino

Roma-Fiumicino, Italia

latitudine: 41-48N, longitudine: 012-14E, altezza: 2 m

Osservazione

Il bollettino è stato emesso 36 minuti fa, alle 01:50 UTC
Vento 6 kt da est
Temperature 4°C
Umidità 87%
Pressione 989 hPa
Visibilità 10 km o più
nessuna nube inferiore a 1500 m e nessun cumulonembo

METAR: LIRF 240150Z 08006KT CAVOK 04/02 Q0989 NOSIG

Ora: 03:26 (02:26 UTC)

Previsione

Il bollettino è stato emesso 3 ore e 26 minuti fa, alle 23:00 UTC
Previsione valida dal 24 alle 00 UTC al 25 alle 06 UTC
Vento 14 kt da est
Visibilità: 7000 m
Nubi sparse ad un'altezza di 4000 ft
Evoluzione graduale
dal 24 alle 10 UTC al 24 alle 12 UTC
Vento 18 kt da nord/nord-est con raffiche fino a 28 kt

TAF: LIRF 232300Z 2400/2506 08014KT 7000 SCT040 BECMG 2410/2412 02018G28KT

Osservazioni e previsioni meteorologiche di più di 4000 aeroporti (messaggi METAR e TAF).

Le stazioni disponibili sono rappresentate dai dischi gialli e rossi sulla carta.

Puntare il mouse per vedere il nome della stazione.

Clicca sopra per visualizzare le osservazioni e previsioni meteorologiche.

Per cambiare la mappa : fare clic sui pulsanti verdi con una croce nera per ingrandire, il pulsante verde con un trattino per diminuire, o sulla freccia verde per le mappe adiacenti.


METAR-TAF: